Time;durP1;ratioP1;P1;durP2;ratioP2;P2;SDS_P1;SDS_P2;PMS_P1;PMS_P2;Temp;Humidity;BMP_temperature;BMP_pressure;BME280_temperature;BME280_humidity;BME280_pressure;Samples;Min_cycle;Max_cycle;Signal;HPM_P1;HPM_P2
2023/05/22 00:00:12;;;;;;;0.08;0.08;;;;;;;16.86;69.45;97350.44;5047369;28;20408;-72
2023/05/22 00:02:41;;;;;;;0.17;0.17;;;;;;;16.81;70.07;97352.22;5052212;28;20072;-73
2023/05/22 00:05:10;;;;;;;0.10;0.10;;;;;;;17.04;69.03;97356.66;5055125;28;20503;-73
2023/05/22 00:07:38;;;;;;;0.00;0.00;;;;;;;16.87;69.74;97349.38;5052190;28;20444;-73
2023/05/22 00:10:07;;;;;;;0.10;0.10;;;;;;;16.75;70.39;97350.47;5054251;28;20136;-72
2023/05/22 00:12:34;;;;;;;0.20;0.20;;;;;;;16.72;69.53;97349.06;5035456;28;20041;-73
2023/05/22 00:15:03;;;;;;;0.13;0.13;;;;;;;16.64;69.76;97341.34;5036499;28;20041;-73
2023/05/22 00:17:32;;;;;;;0.13;0.13;;;;;;;16.68;69.55;97344.41;5056390;28;20064;-73
2023/05/22 00:20:07;;;;;;;0.10;0.10;;;;;;;16.73;69.08;97336.41;5063740;28;20052;-73
2023/05/22 00:22:35;;;;;;;0.10;0.10;;;;;;;16.73;68.85;97344.50;5051393;28;20069;-73
2023/05/22 00:25:03;;;;;;;0.20;0.10;;;;;;;16.40;70.40;97337.06;5050894;28;20041;-73
2023/05/22 00:27:30;;;;;;;0.10;0.10;;;;;;;16.47;70.08;97335.88;5050150;28;20513;-73
2023/05/22 00:29:58;;;;;;;0.13;0.13;;;;;;;16.48;69.43;97332.13;5018100;28;20072;-73
2023/05/22 00:32:26;;;;;;;0.10;0.10;;;;;;;16.41;70.46;97334.13;5043154;28;20049;-73
2023/05/22 00:34:55;;;;;;;0.10;0.10;;;;;;;16.45;70.27;97335.28;5034042;28;20049;-73
2023/05/22 00:37:24;;;;;;;0.10;0.10;;;;;;;16.36;71.02;97331.34;5040034;28;20051;-74
2023/05/22 00:39:51;;;;;;;0.10;0.10;;;;;;;16.34;70.84;97340.72;5053614;28;20115;-73
2023/05/22 00:42:19;;;;;;;0.20;0.20;;;;;;;16.23;71.29;97333.47;5032598;28;20049;-74
2023/05/22 00:44:48;;;;;;;0.10;0.10;;;;;;;16.24;71.26;97330.53;5052177;28;20045;-73
2023/05/22 00:47:16;;;;;;;0.10;0.10;;;;;;;16.37;70.61;97332.16;5037375;28;20069;-74
2023/05/22 00:49:43;;;;;;;0.13;0.13;;;;;;;16.32;71.12;97332.84;5048651;28;20052;-74
2023/05/22 00:52:13;;;;;;;0.10;0.10;;;;;;;16.11;72.07;97331.59;5048508;28;20056;-73
2023/05/22 00:54:40;;;;;;;0.10;0.10;;;;;;;16.37;70.42;97330.28;5055115;28;20410;-73
2023/05/22 00:57:08;;;;;;;0.05;0.05;;;;;;;16.37;70.47;97327.59;5050645;28;20403;-74
2023/05/22 00:59:36;;;;;;;0.15;0.15;;;;;;;16.19;70.85;97322.38;5042660;28;20046;-73
2023/05/22 01:02:04;;;;;;;0.10;0.10;;;;;;;15.96;72.10;97327.78;5029565;28;20059;-72
2023/05/22 01:04:32;;;;;;;0.10;0.10;;;;;;;16.01;71.52;97328.69;5042638;28;20041;-73
2023/05/22 01:07:01;;;;;;;0.20;0.20;;;;;;;15.88;72.44;97336.22;5052330;28;20060;-72
2023/05/22 01:09:30;;;;;;;0.20;0.20;;;;;;;15.97;71.59;97335.63;5062949;28;20036;-72
2023/05/22 01:12:01;;;;;;;0.10;0.10;;;;;;;15.99;71.97;97343.44;5054636;28;20036;-73
2023/05/22 01:14:34;;;;;;;0.10;0.10;;;;;;;16.07;71.77;97343.09;5044479;28;20674;-73
2023/05/22 01:17:07;;;;;;;0.20;0.20;;;;;;;16.16;71.41;97341.69;5058533;28;20511;-73
2023/05/22 01:20:00;;;;;;;0.10;0.10;;;;;;;16.01;72.06;97347.53;5045017;28;20425;-72
2023/05/22 01:22:42;;;;;;;0.10;0.10;;;;;;;16.08;71.60;97345.56;5045467;28;20128;-73
2023/05/22 01:25:25;;;;;;;0.10;0.10;;;;;;;16.04;71.52;97341.69;5032232;28;20095;-72
2023/05/22 01:28:04;;;;;;;0.10;0.10;;;;;;;16.13;71.13;97351.03;5050329;28;20045;-73
2023/05/22 01:30:44;;;;;;;0.10;0.10;;;;;;;16.16;70.97;97341.69;5047742;28;20047;-72
2023/05/22 01:33:14;;;;;;;0.10;0.10;;;;;;;16.09;71.18;97349.88;5052671;28;20072;-72
2023/05/22 01:35:45;;;;;;;0.20;0.20;;;;;;;15.96;71.75;97346.63;5060102;28;20455;-73
2023/05/22 01:38:13;;;;;;;0.10;0.10;;;;;;;15.91;71.54;97349.19;5052423;28;20059;-73
2023/05/22 01:40:40;;;;;;;0.10;0.10;;;;;;;15.79;72.36;97344.59;5062356;28;20053;-73
2023/05/22 01:43:08;;;;;;;0.10;0.10;;;;;;;15.43;73.78;97342.94;5027862;28;20084;-72
2023/05/22 01:45:36;;;;;;;0.10;0.10;;;;;;;15.66;72.53;97335.97;5055641;28;20056;-72
2023/05/22 01:48:05;;;;;;;0.10;0.10;;;;;;;15.49;73.50;97348.41;5051943;28;20044;-73
2023/05/22 01:50:33;;;;;;;0.10;0.10;;;;;;;15.43;73.71;97345.63;5050467;28;20079;-73
2023/05/22 01:53:08;;;;;;;0.20;0.20;;;;;;;15.39;74.15;97344.44;5027167;28;20535;-73
2023/05/22 01:55:41;;;;;;;0.10;0.10;;;;;;;15.45;73.64;97341.88;5053135;28;20044;-73
2023/05/22 01:58:17;;;;;;;0.10;0.10;;;;;;;15.40;73.72;97354.13;5041500;28;20048;-73
2023/05/22 02:00:45;;;;;;;0.10;0.10;;;;;;;15.48;73.67;97350.28;5027478;28;20053;-73
2023/05/22 02:03:18;;;;;;;0.03;0.03;;;;;;;15.56;72.68;97349.19;5041949;28;20048;-73
2023/05/22 02:05:53;;;;;;;0.10;0.10;;;;;;;15.20;73.93;97342.03;5038706;28;20511;-73
2023/05/22 02:08:21;;;;;;;0.10;0.10;;;;;;;15.39;72.97;97339.03;5052096;28;20050;-72
2023/05/22 02:10:50;;;;;;;0.10;0.10;;;;;;;15.35;73.04;97337.88;5042472;28;20480;-73
2023/05/22 02:13:20;;;;;;;0.10;0.10;;;;;;;15.22;73.21;97340.78;5032289;28;20045;-74
2023/05/22 02:15:48;;;;;;;0.10;0.10;;;;;;;15.35;72.56;97337.88;5034586;28;20055;-74
2023/05/22 02:18:17;;;;;;;0.10;0.10;;;;;;;15.17;73.43;97334.44;5042400;28;20208;-73
2023/05/22 02:20:45;;;;;;;0.10;0.10;;;;;;;15.12;73.32;97329.75;5034037;28;20081;-72
2023/05/22 02:23:16;;;;;;;0.15;0.15;;;;;;;15.20;72.96;97326.75;5030317;28;20061;-72
2023/05/22 02:25:43;;;;;;;0.10;0.10;;;;;;;15.05;73.45;97332.53;5063824;28;20124;-72
2023/05/22 02:28:11;;;;;;;0.10;0.10;;;;;;;14.86;74.54;97322.88;5052540;28;20053;-72
2023/05/22 02:30:39;;;;;;;0.10;0.10;;;;;;;14.91;73.97;97324.91;5046701;28;20082;-73
2023/05/22 02:33:08;;;;;;;0.10;0.10;;;;;;;14.86;74.02;97324.75;5034906;28;20135;-74
2023/05/22 02:35:37;;;;;;;0.03;0.03;;;;;;;14.95;74.02;97316.13;5058872;28;20385;-74
2023/05/22 02:38:05;;;;;;;0.20;0.20;;;;;;;14.87;74.17;97308.41;5062722;28;20048;-74
2023/05/22 02:40:33;;;;;;;0.10;0.10;;;;;;;14.81;74.28;97317.41;5039812;28;20086;-74
2023/05/22 02:43:00;;;;;;;0.15;0.15;;;;;;;14.88;73.84;97311.91;5026744;28;20084;-74
2023/05/22 02:45:28;;;;;;;0.10;0.10;;;;;;;14.90;74.12;97318.72;5032101;28;20171;-74
2023/05/22 02:47:56;;;;;;;0.10;0.10;;;;;;;14.93;73.74;97302.13;5038407;28;20117;-74
2023/05/22 02:50:23;;;;;;;0.10;0.10;;;;;;;14.84;73.91;97311.56;5031996;28;20431;-73
2023/05/22 02:52:52;;;;;;;0.20;0.20;;;;;;;14.78;74.23;97311.66;5033192;28;20040;-73
2023/05/22 02:55:20;;;;;;;0.10;0.10;;;;;;;14.95;73.28;97305.38;5027534;28;20060;-73
2023/05/22 02:57:48;;;;;;;0.10;0.10;;;;;;;14.79;73.54;97300.69;5055181;28;20601;-73
2023/05/22 03:00:16;;;;;;;0.10;0.10;;;;;;;14.63;74.35;97301.31;5045931;28;20099;-74
2023/05/22 03:02:44;;;;;;;0.20;0.20;;;;;;;14.51;75.21;97297.75;5026178;28;20053;-73
2023/05/22 03:05:16;;;;;;;0.20;0.20;;;;;;;14.53;74.85;97296.50;5042196;28;20076;-73
2023/05/22 03:07:45;;;;;;;0.20;0.20;;;;;;;14.59;74.62;97300.13;5028061;28;20080;-74
2023/05/22 03:10:17;;;;;;;0.20;0.20;;;;;;;14.53;75.00;97299.19;5049561;28;20092;-73
2023/05/22 03:12:44;;;;;;;0.10;0.10;;;;;;;14.52;74.62;97299.41;5026565;28;20083;-73
2023/05/22 03:15:12;;;;;;;0.20;0.20;;;;;;;14.52;74.65;97308.28;5026759;28;20048;-74
2023/05/22 03:17:42;;;;;;;0.20;0.20;;;;;;;14.26;75.32;97305.88;5036984;28;20380;-74
2023/05/22 03:20:15;;;;;;;0.17;0.17;;;;;;;14.33;75.04;97302.06;5046323;28;20579;-74
2023/05/22 03:22:44;;;;;;;0.10;0.10;;;;;;;14.36;74.99;97305.34;5042147;28;20045;-74
2023/05/22 03:25:12;;;;;;;0.20;0.20;;;;;;;14.38;74.79;97303.28;5033298;28;20048;-74
2023/05/22 03:27:41;;;;;;;0.20;0.20;;;;;;;14.26;74.85;97298.66;5054754;28;20120;-73
2023/05/22 03:30:10;;;;;;;0.15;0.15;;;;;;;14.16;75.46;97302.91;5045914;28;20132;-73
2023/05/22 03:32:41;;;;;;;0.13;0.13;;;;;;;14.16;75.30;97297.53;5028707;28;20057;-72
2023/05/22 03:35:09;;;;;;;0.10;0.10;;;;;;;14.21;75.03;97305.75;5047937;28;20045;-74
2023/05/22 03:37:37;;;;;;;0.10;0.10;;;;;;;14.14;75.31;97302.31;5035958;28;20044;-75
2023/05/22 03:40:06;;;;;;;0.10;0.10;;;;;;;14.09;75.49;97305.69;5028809;28;20095;-74
2023/05/22 03:42:34;;;;;;;0.20;0.20;;;;;;;14.23;74.58;97301.78;5026478;28;20136;-72
2023/05/22 03:45:03;;;;;;;0.10;0.10;;;;;;;14.16;74.96;97298.38;5029041;28;20095;-76
2023/05/22 03:47:32;;;;;;;0.17;0.17;;;;;;;14.09;75.60;97305.69;5032730;28;20458;-74
2023/05/22 03:49:59;;;;;;;0.20;0.20;;;;;;;14.10;75.24;97307.31;5040219;28;20045;-74
2023/05/22 03:52:27;;;;;;;0.15;0.15;;;;;;;14.04;75.42;97305.50;5029703;28;20507;-74
2023/05/22 03:54:55;;;;;;;0.10;0.10;;;;;;;14.12;75.04;97304.41;5033656;28;20052;-71
2023/05/22 03:57:23;;;;;;;0.10;0.10;;;;;;;14.14;75.24;97300.44;5032568;28;20037;-74
2023/05/22 03:59:50;;;;;;;0.05;0.05;;;;;;;14.27;74.45;97302.16;5029310;28;20041;-74
2023/05/22 04:02:19;;;;;;;0.10;0.10;;;;;;;14.19;74.66;97303.28;5034353;28;20048;-74
2023/05/22 04:04:48;;;;;;;0.10;0.10;;;;;;;14.08;74.98;97306.72;5034033;28;20076;-70
2023/05/22 04:07:17;;;;;;;0.10;0.10;;;;;;;14.04;75.20;97302.84;5047302;28;20052;-71
2023/05/22 04:09:45;;;;;;;0.17;0.17;;;;;;;13.91;75.57;97308.38;5031006;28;20522;-73
2023/05/22 04:12:12;;;;;;;0.17;0.17;;;;;;;13.89;75.88;97305.91;5056291;28;20492;-72
2023/05/22 04:14:40;;;;;;;0.10;0.10;;;;;;;14.00;75.41;97307.03;5036336;28;20060;-74
2023/05/22 04:17:07;;;;;;;0.20;0.20;;;;;;;13.96;75.74;97303.97;5047700;28;20548;-72
2023/05/22 04:19:36;;;;;;;0.10;0.10;;;;;;;14.05;75.44;97306.34;5022840;28;20037;-73
2023/05/22 04:22:05;;;;;;;0.20;0.20;;;;;;;14.30;74.33;97304.41;5033440;28;20078;-72
2023/05/22 04:24:33;;;;;;;0.20;0.20;;;;;;;14.33;74.18;97298.56;5037213;28;20033;-72
2023/05/22 04:27:01;;;;;;;0.20;0.20;;;;;;;14.19;74.73;97305.16;5061225;28;20045;-76
2023/05/22 04:29:28;;;;;;;0.20;0.20;;;;;;;14.31;74.17;97298.00;5052235;28;20086;-72
2023/05/22 04:31:56;;;;;;;0.15;0.15;;;;;;;14.13;74.91;97309.53;5030693;28;20047;-74
2023/05/22 04:34:23;;;;;;;0.10;0.10;;;;;;;14.06;75.42;97305.28;5054406;28;20052;-73
2023/05/22 04:36:52;;;;;;;0.10;0.10;;;;;;;14.01;75.90;97311.34;5068116;28;20037;-73
2023/05/22 04:39:20;;;;;;;0.13;0.13;;;;;;;14.07;75.60;97306.94;5033830;28;20072;-73
2023/05/22 04:41:47;;;;;;;0.13;0.13;;;;;;;14.24;75.03;97308.78;5050956;28;20047;-73
2023/05/22 04:44:15;;;;;;;0.13;0.13;;;;;;;14.20;75.05;97304.94;5036879;28;20060;-75
2023/05/22 04:46:44;;;;;;;0.10;0.10;;;;;;;14.11;76.01;97305.47;5040265;28;20052;-73
2023/05/22 04:49:11;;;;;;;0.20;0.20;;;;;;;14.23;75.33;97301.78;5031142;28;20072;-73
2023/05/22 04:51:39;;;;;;;0.10;0.10;;;;;;;14.32;75.14;97313.88;5058766;28;20044;-72
2023/05/22 04:54:08;;;;;;;0.10;0.10;;;;;;;14.34;75.16;97308.25;5057729;28;20073;-73
2023/05/22 04:56:35;;;;;;;0.20;0.20;;;;;;;14.41;74.96;97313.59;5075430;28;20041;-74
2023/05/22 04:59:07;;;;;;;0.20;0.20;;;;;;;14.49;74.79;97307.91;5074445;28;20132;-73
2023/05/22 05:01:36;;;;;;;0.43;0.43;;;;;;;14.46;74.72;97309.19;5049451;28;20413;-73
2023/05/22 05:04:04;;;;;;;0.15;0.15;;;;;;;14.53;74.84;97304.56;5049913;28;20613;-71
2023/05/22 05:06:33;;;;;;;0.20;0.20;;;;;;;14.58;74.81;97302.00;5053737;28;20045;-73
2023/05/22 05:09:02;;;;;;;0.10;0.10;;;;;;;14.87;73.83;97304.91;5049792;28;20092;-71
2023/05/22 05:11:31;;;;;;;0.10;0.10;;;;;;;14.88;73.84;97304.69;5050849;28;20040;-73
2023/05/22 05:13:58;;;;;;;0.10;0.10;;;;;;;14.83;74.41;97306.41;5038823;28;20060;-71
2023/05/22 05:16:26;;;;;;;0.20;0.20;;;;;;;14.90;74.29;97307.13;5037146;28;20067;-69
2023/05/22 05:18:55;;;;;;;0.20;0.20;;;;;;;14.91;74.27;97304.22;5064312;28;20037;-70
2023/05/22 05:21:26;;;;;;;0.20;0.20;;;;;;;15.07;73.85;97305.41;5050052;28;20131;-71
2023/05/22 05:23:55;;;;;;;0.20;0.20;;;;;;;15.24;73.53;97313.66;5035066;28;20508;-71
2023/05/22 05:26:23;;;;;;;0.15;0.15;;;;;;;15.28;72.75;97304.06;5049902;28;20124;-70
2023/05/22 05:28:52;;;;;;;0.10;0.10;;;;;;;15.34;72.81;97298.59;5033509;28;20051;-71
2023/05/22 05:31:20;;;;;;;0.10;0.10;;;;;;;15.48;72.85;97304.56;5038671;28;20051;-71
2023/05/22 05:33:56;;;;;;;0.10;0.10;;;;;;;15.50;72.47;97296.25;5033536;28;20045;-71
2023/05/22 05:36:31;;;;;;;0.10;0.10;;;;;;;15.53;72.76;97302.00;5033060;28;20050;-73
2023/05/22 05:38:59;;;;;;;0.10;0.10;;;;;;;15.65;72.19;97310.94;5032273;28;20037;-71
2023/05/22 05:41:28;;;;;;;0.10;0.10;;;;;;;15.75;72.02;97305.78;5035235;28;20094;-71
2023/05/22 05:44:03;;;;;;;0.10;0.10;;;;;;;15.75;72.00;97310.34;5034398;28;20500;-71
2023/05/22 05:46:32;;;;;;;0.20;0.20;;;;;;;15.79;71.84;97317.69;5035135;28;20087;-71
2023/05/22 05:49:01;;;;;;;0.10;0.10;;;;;;;15.87;71.93;97310.34;5039798;28;20543;-71
2023/05/22 05:51:28;;;;;;;0.20;0.20;;;;;;;15.91;71.22;97309.63;5031578;28;20044;-71
2023/05/22 05:53:56;;;;;;;0.10;0.10;;;;;;;16.00;71.03;97304.69;5038168;28;20122;-72
2023/05/22 05:56:25;;;;;;;0.28;0.20;;;;;;;16.07;70.63;97302.72;5034806;28;20044;-71
2023/05/22 05:58:53;;;;;;;0.10;0.10;;;;;;;16.20;70.86;97304.31;5034979;28;20041;-72
2023/05/22 06:01:34;;;;;;;0.10;0.10;;;;;;;16.28;70.47;97299.38;5030341;28;20140;-71
2023/05/22 06:04:02;;;;;;;0.15;0.15;;;;;;;16.39;69.88;97303.94;5047022;28;20051;-71
2023/05/22 06:06:34;;;;;;;0.10;0.10;;;;;;;16.55;70.06;97301.53;5029691;28;20052;-71
2023/05/22 06:09:09;;;;;;;0.10;0.10;;;;;;;16.67;69.22;97302.34;5042394;28;20099;-70
2023/05/22 06:11:55;;;;;;;0.00;0.00;;;;;;;16.83;68.70;97298.84;5053871;28;20436;-71
2023/05/22 06:14:24;;;;;;;0.10;0.10;;;;;;;16.96;68.66;97308.53;5030593;28;20048;-71
2023/05/22 06:16:53;;;;;;;0.10;0.10;;;;;;;16.99;67.99;97300.78;5040238;28;20049;-71
2023/05/22 06:19:21;;;;;;;0.10;0.10;;;;;;;17.05;67.76;97293.59;5039461;28;20535;-71
2023/05/22 06:21:49;;;;;;;0.10;0.10;;;;;;;17.09;67.36;97298.25;5036563;28;20559;-71
2023/05/22 06:24:19;;;;;;;0.10;0.10;;;;;;;17.21;67.65;97299.03;5031358;28;20051;-71
2023/05/22 06:26:47;;;;;;;0.17;0.10;;;;;;;17.32;66.92;97299.19;5045057;28;20049;-72
2023/05/22 06:29:15;;;;;;;0.20;0.20;;;;;;;17.47;66.65;97294.03;5032367;28;20049;-72
2023/05/22 06:31:43;;;;;;;0.10;0.10;;;;;;;17.52;66.05;97299.53;5033174;28;20045;-71
2023/05/22 06:34:12;;;;;;;0.10;0.10;;;;;;;17.68;66.16;97296.00;5050887;28;20069;-69
2023/05/22 06:36:41;;;;;;;0.10;0.10;;;;;;;17.85;65.55;97299.53;5026097;28;20049;-71
2023/05/22 06:39:08;;;;;;;0.10;0.10;;;;;;;17.94;64.85;97298.03;5027269;28;20048;-73
2023/05/22 06:42:06;;;;;;;0.10;0.10;;;;;;;18.14;65.13;97293.97;5031631;28;20037;-73
2023/05/22 06:44:52;;;;;;;0.10;0.10;;;;;;;18.33;63.99;97288.00;5049109;28;20056;-72
2023/05/22 06:47:22;;;;;;;0.10;0.10;;;;;;;18.48;64.33;97287.34;5045829;28;20139;-70
2023/05/22 06:49:51;;;;;;;0.10;0.10;;;;;;;18.63;63.53;97292.16;5054491;28;20044;-70
2023/05/22 06:52:19;;;;;;;0.00;0.00;;;;;;;18.77;62.46;97289.88;5034593;28;20044;-72
2023/05/22 06:54:46;;;;;;;0.10;0.10;;;;;;;18.90;62.28;97289.47;5028654;28;20132;-70
2023/05/22 06:57:15;;;;;;;0.10;0.10;;;;;;;18.99;61.04;97290.66;5034028;28;20408;-72
2023/05/22 06:59:42;;;;;;;0.10;0.10;;;;;;;19.10;60.93;97292.41;5051878;28;20047;-72
2023/05/22 07:02:39;;;;;;;0.10;0.10;;;;;;;19.25;59.96;97291.69;5047862;28;20046;-71
2023/05/22 07:05:19;;;;;;;0.10;0.10;;;;;;;19.38;60.13;97286.69;5025973;28;20057;-72
2023/05/22 07:07:53;;;;;;;0.10;0.10;;;;;;;19.42;59.67;97285.06;5034336;28;20090;-72
2023/05/22 07:10:20;;;;;;;0.00;0.00;;;;;;;19.49;59.42;97290.31;5022736;28;20037;-72
2023/05/22 07:12:48;;;;;;;0.10;0.10;;;;;;;19.63;59.57;97291.50;5056726;28;20041;-69
2023/05/22 07:15:16;;;;;;;0.10;0.10;;;;;;;19.77;59.11;97289.16;5029489;28;20053;-71
2023/05/22 07:17:48;;;;;;;;;;;;;;;19.95;58.69;97279.78;5047265;28;20419;-70
2023/05/22 07:20:17;;;;;;;0.20;0.20;;;;;;;20.00;58.17;97287.94;5051956;28;19927;-70
2023/05/22 07:22:58;;;;;;;0.10;0.10;;;;;;;20.06;58.62;97274.16;5033714;28;20140;-70
2023/05/22 07:25:26;;;;;;;0.20;0.20;;;;;;;20.28;57.95;97268.56;5033922;28;20550;-70
2023/05/22 07:27:57;;;;;;;0.10;0.10;;;;;;;20.41;57.75;97270.84;5029287;28;20044;-70
2023/05/22 07:30:25;;;;;;;0.10;0.10;;;;;;;20.43;57.32;97267.88;5026506;28;20175;-72
2023/05/22 07:32:53;;;;;;;0.10;0.10;;;;;;;20.61;57.30;97269.28;5034161;28;20110;-73
2023/05/22 07:35:21;;;;;;;0.10;0.10;;;;;;;20.85;56.87;97268.53;5034217;28;20037;-70
2023/05/22 07:37:49;;;;;;;0.10;0.10;;;;;;;21.05;56.52;97266.94;5033616;28;20106;-73
2023/05/22 07:40:18;;;;;;;0.10;0.10;;;;;;;21.24;56.20;97263.44;5050034;28;20076;-72
2023/05/22 07:42:45;;;;;;;0.10;0.10;;;;;;;21.49;55.46;97262.63;5033278;28;20049;-70
2023/05/22 07:45:13;;;;;;;0.10;0.10;;;;;;;21.62;55.55;97266.69;5046239;28;20037;-73
2023/05/22 07:47:41;;;;;;;0.10;0.10;;;;;;;21.72;55.61;97263.97;5064951;28;20076;-70
2023/05/22 07:50:10;;;;;;;0.10;0.10;;;;;;;21.85;54.53;97274.28;5053222;28;20044;-70
2023/05/22 07:52:44;;;;;;;0.10;0.10;;;;;;;22.04;54.34;97263.66;5043665;28;20045;-70
2023/05/22 07:55:12;;;;;;;0.10;0.10;;;;;;;22.21;53.90;97264.16;5033629;28;20579;-70
2023/05/22 07:57:43;;;;;;;0.10;0.10;;;;;;;22.21;53.06;97264.16;5030293;28;20140;-70
2023/05/22 08:00:20;;;;;;;0.10;0.10;;;;;;;22.38;52.84;97254.84;5033408;28;20045;-70
2023/05/22 08:02:47;;;;;;;0.00;0.00;;;;;;;22.56;52.46;97259.66;5044154;28;20438;-71
2023/05/22 08:05:15;;;;;;;0.10;0.10;;;;;;;22.66;52.33;97259.59;5033343;28;20574;-70
2023/05/22 08:07:42;;;;;;;0.10;0.10;;;;;;;22.65;52.09;97257.97;5047483;28;20057;-70
2023/05/22 08:10:14;;;;;;;0.10;0.10;;;;;;;22.87;51.95;97269.31;5058140;28;20129;-71
2023/05/22 08:12:43;;;;;;;0.10;0.10;;;;;;;22.93;51.64;97264.66;5048503;28;20527;-72
2023/05/22 08:15:11;;;;;;;0.10;0.10;;;;;;;22.96;51.10;97262.16;5045343;28;20049;-70
2023/05/22 08:17:39;;;;;;;0.10;0.10;;;;;;;23.13;51.25;97261.00;5051941;28;20052;-70
2023/05/22 08:20:08;;;;;;;0.20;0.20;;;;;;;23.27;51.10;97257.31;5052068;28;20037;-70
2023/05/22 08:22:38;;;;;;;0.00;0.00;;;;;;;23.41;50.37;97260.22;5058325;28;20041;-70
2023/05/22 08:25:06;;;;;;;0.10;0.10;;;;;;;23.53;49.89;97252.53;5071967;28;20123;-70
2023/05/22 08:27:33;;;;;;;0.10;0.10;;;;;;;23.55;49.91;97253.06;5072746;28;20058;-70
2023/05/22 08:30:04;;;;;;;0.13;0.13;;;;;;;23.54;49.70;97245.16;5065545;28;20049;-70
2023/05/22 08:32:31;;;;;;;0.00;0.00;;;;;;;23.53;50.03;97251.72;5063589;28;20066;-70
2023/05/22 08:34:59;;;;;;;0.10;0.10;;;;;;;23.56;49.74;97249.22;5053888;28;20496;-70
2023/05/22 08:37:26;;;;;;;0.00;0.00;;;;;;;23.76;49.15;97245.50;5053134;28;20511;-70
2023/05/22 08:39:54;;;;;;;0.10;0.10;;;;;;;23.74;49.60;97248.50;5077180;22;20052;-74
2023/05/22 08:42:22;;;;;;;0.00;0.00;;;;;;;23.95;49.49;97253.75;5057412;28;20431;-74
2023/05/22 08:44:49;;;;;;;0.10;0.10;;;;;;;24.17;48.62;97251.31;5064826;28;20055;-74
2023/05/22 08:47:19;;;;;;;0.10;0.10;;;;;;;24.23;47.87;97242.00;5058155;28;20040;-73
2023/05/22 08:49:50;;;;;;;0.10;0.00;;;;;;;24.20;47.96;97237.09;5030811;28;20512;-73
2023/05/22 08:52:19;;;;;;;0.00;0.00;;;;;;;24.25;48.11;97230.81;5059591;28;20049;-73
2023/05/22 08:54:51;;;;;;;0.00;0.00;;;;;;;24.57;47.55;97238.31;5043930;28;20045;-74
2023/05/22 08:57:19;;;;;;;0.00;0.00;;;;;;;24.78;47.04;97232.28;5032725;28;20056;-73
2023/05/22 08:59:47;;;;;;;0.10;0.10;;;;;;;24.92;45.87;97229.63;5062933;28;20115;-74
2023/05/22 09:02:16;;;;;;;0.10;0.10;;;;;;;25.04;46.22;97235.47;5066115;28;20052;-73
2023/05/22 09:04:45;;;;;;;0.10;0.10;;;;;;;25.08;45.98;97224.78;5066905;28;20051;-73
2023/05/22 09:07:13;;;;;;;0.13;0.13;;;;;;;25.26;45.43;97226.66;5065931;28;20046;-74
2023/05/22 09:09:41;;;;;;;0.10;0.10;;;;;;;25.42;44.32;97224.50;5061282;28;20037;-74
2023/05/22 09:12:09;;;;;;;0.10;0.10;;;;;;;25.52;43.74;97216.13;5070745;28;20076;-75
2023/05/22 09:14:40;;;;;;;0.10;0.10;;;;;;;25.64;43.63;97221.97;5058151;28;20488;-75
2023/05/22 09:17:10;;;;;;;0.10;0.10;;;;;;;25.46;42.70;97217.31;5060668;28;20056;-74
2023/05/22 09:19:39;;;;;;;0.00;0.00;;;;;;;25.54;43.70;97211.19;5061278;28;20064;-73
2023/05/22 09:22:08;;;;;;;0.00;0.00;;;;;;;25.37;43.28;97210.91;5054780;28;20129;-74
2023/05/22 09:24:38;;;;;;;0.00;0.00;;;;;;;25.62;42.90;97207.78;5052471;28;20041;-73
2023/05/22 09:27:07;;;;;;;0.03;0.03;;;;;;;25.76;43.08;97208.59;5060612;28;20124;-74
2023/05/22 09:29:48;;;;;;;0.10;0.10;;;;;;;25.87;42.08;97210.03;5042559;28;20044;-74
2023/05/22 09:32:16;;;;;;;0.00;0.00;;;;;;;26.02;42.13;97208.94;5068873;28;20049;-74
2023/05/22 09:34:43;;;;;;;0.10;0.10;;;;;;;26.12;42.06;97213.38;5040870;28;20045;-73
2023/05/22 09:37:13;;;;;;;0.00;0.00;;;;;;;26.18;42.98;97210.22;5045179;28;20073;-73
2023/05/22 09:39:41;;;;;;;0.03;0.03;;;;;;;26.13;43.75;97215.00;5067830;28;20044;-73
2023/05/22 09:42:10;;;;;;;0.00;0.00;;;;;;;25.82;44.18;97215.59;5063017;28;20043;-74
2023/05/22 09:44:38;;;;;;;0.00;0.00;;;;;;;25.71;44.08;97211.44;5068775;28;20047;-73
2023/05/22 09:47:06;;;;;;;0.05;0.05;;;;;;;25.76;44.09;97210.50;5064018;28;20305;-73
2023/05/22 09:49:36;;;;;;;0.10;0.10;;;;;;;25.82;44.37;97204.66;5069349;28;20040;-74
2023/05/22 09:52:04;;;;;;;0.05;0.05;;;;;;;25.84;42.85;97205.19;5045610;28;20051;-74
2023/05/22 09:54:34;;;;;;;0.10;0.10;;;;;;;25.88;42.65;97206.19;5068860;28;20044;-74
2023/05/22 09:57:05;;;;;;;0.00;0.00;;;;;;;25.93;43.68;97210.75;5067563;28;20045;-73
2023/05/22 09:59:33;;;;;;;0.00;0.00;;;;;;;26.15;43.81;97207.31;5056561;28;20036;-74
2023/05/22 10:02:02;;;;;;;0.00;0.00;;;;;;;26.36;41.77;97200.34;5067659;28;20113;-73
2023/05/22 10:04:32;;;;;;;0.05;0.05;;;;;;;26.58;42.41;97205.84;5064536;28;20531;-74
2023/05/22 10:07:02;;;;;;;0.00;0.00;;;;;;;26.61;42.61;97199.78;5069451;28;20083;-73
2023/05/22 10:09:33;;;;;;;0.10;0.10;;;;;;;26.83;42.23;97190.78;5073909;28;20040;-74
2023/05/22 10:12:04;;;;;;;0.00;0.00;;;;;;;27.01;40.89;97197.25;5069030;28;20056;-74
2023/05/22 10:14:32;;;;;;;0.00;0.00;;;;;;;26.81;41.09;97198.50;5055904;28;20513;-73
2023/05/22 10:17:01;;;;;;;0.00;0.00;;;;;;;27.10;39.53;97198.13;5049657;28;20057;-73
2023/05/22 10:19:31;;;;;;;0.00;0.00;;;;;;;27.26;38.84;97202.13;5068081;28;20055;-73
2023/05/22 10:22:00;;;;;;;0.00;0.00;;;;;;;27.48;36.02;97195.00;5063384;28;20040;-73
2023/05/22 10:24:28;;;;;;;0.00;0.00;;;;;;;27.21;37.61;97190.47;5061039;28;20219;-73
2023/05/22 10:26:57;;;;;;;0.10;0.10;;;;;;;27.50;38.04;97192.78;5063558;28;20128;-73
2023/05/22 10:29:29;;;;;;;0.00;0.00;;;;;;;27.60;38.13;97190.59;5059582;28;20098;-73
2023/05/22 10:32:01;;;;;;;0.00;0.00;;;;;;;27.75;37.69;97197.59;5049773;28;20044;-74
2023/05/22 10:34:42;;;;;;;0.00;0.00;;;;;;;27.46;35.34;97189.84;5038582;28;20073;-74
2023/05/22 10:37:17;;;;;;;0.00;0.00;;;;;;;27.20;36.12;97184.16;5067435;28;20045;-75
2023/05/22 10:39:54;;;;;;;0.00;0.00;;;;;;;27.55;34.67;97184.44;5066492;28;20049;-74
2023/05/22 10:42:23;;;;;;;0.03;0.03;;;;;;;27.32;33.35;97170.72;5061472;28;20495;-73
2023/05/22 10:44:53;;;;;;;0.00;0.00;;;;;;;27.16;34.52;97185.94;5068582;28;20158;-73
2023/05/22 10:47:20;;;;;;;0.00;0.00;;;;;;;27.29;35.04;97174.09;5063983;28;20086;-73
2023/05/22 10:49:49;;;;;;;0.10;0.10;;;;;;;27.32;34.18;97169.91;5068636;28;20045;-74
2023/05/22 10:52:20;;;;;;;0.00;0.00;;;;;;;27.57;33.91;97173.97;5064917;28;20471;-74
2023/05/22 10:54:52;;;;;;;0.00;0.00;;;;;;;27.15;34.34;97176.09;5067009;28;20051;-74
2023/05/22 10:57:20;;;;;;;0.00;0.00;;;;;;;27.52;34.27;97165.81;5055738;28;20478;-73
2023/05/22 10:59:49;;;;;;;0.00;0.00;;;;;;;27.51;33.98;97172.44;5057902;28;20080;-74
2023/05/22 11:02:21;;;;;;;0.00;0.00;;;;;;;27.61;38.00;97166.72;5064909;28;20379;-74
2023/05/22 11:04:49;;;;;;;;;;;;;;;27.69;38.28;97166.78;5062023;28;20090;-73
2023/05/22 11:07:17;;;;;;;0.00;0.00;;;;;;;27.76;37.69;97163.56;5044740;28;19931;-74
2023/05/22 11:09:46;;;;;;;0.00;0.00;;;;;;;27.68;37.48;97159.66;5065485;28;20051;-74
2023/05/22 11:12:19;;;;;;;0.20;0.00;;;;;;;27.89;36.10;97167.34;5069578;28;20408;-74
2023/05/22 11:14:50;;;;;;;0.00;0.00;;;;;;;27.98;35.62;97165.44;5049835;28;20055;-73
2023/05/22 11:17:21;;;;;;;0.00;0.00;;;;;;;28.16;35.59;97158.84;5062212;28;20388;-73
2023/05/22 11:19:57;;;;;;;0.00;0.00;;;;;;;28.32;35.14;97154.59;5068462;28;20052;-73
2023/05/22 11:22:30;;;;;;;0.00;0.00;;;;;;;28.36;34.66;97154.72;5057467;28;20040;-74
2023/05/22 11:24:58;;;;;;;0.05;0.05;;;;;;;28.33;34.98;97144.41;5060300;28;20045;-73
2023/05/22 11:27:26;;;;;;;0.00;0.00;;;;;;;28.39;35.36;97149.41;5050328;28;20090;-73
2023/05/22 11:29:56;;;;;;;0.00;0.00;;;;;;;28.40;35.83;97148.28;5063802;28;20055;-74
2023/05/22 11:32:24;;;;;;;0.00;0.00;;;;;;;28.27;35.08;97149.22;5067003;28;20041;-73
2023/05/22 11:34:51;;;;;;;0.08;0.08;;;;;;;27.79;35.73;97151.16;5064853;28;20052;-74
2023/05/22 11:37:19;;;;;;;0.00;0.00;;;;;;;27.91;35.92;97151.38;5067965;28;20041;-73
2023/05/22 11:39:50;;;;;;;0.20;0.20;;;;;;;27.90;35.77;97147.00;5066741;28;20446;-74
2023/05/22 11:42:19;;;;;;;0.00;0.00;;;;;;;27.84;36.12;97143.56;5060772;28;20060;-73
2023/05/22 11:44:46;;;;;;;0.00;0.00;;;;;;;27.87;36.40;97140.22;5066850;28;20075;-73